Time;durP1;ratioP1;P1;durP2;ratioP2;P2;SDS_P1;SDS_P2;PMS_P1;PMS_P2;Temp;Humidity;BMP_temperature;BMP_pressure;BME280_temperature;BME280_humidity;BME280_pressure;Samples;Min_cycle;Max_cycle;Signal;HPM_P1;HPM_P2
2022/03/28 00:00:17;;;;;;;31.33;28.17;;;;;;;5.58;100.00;99689.09;5016830;28;20069;-59
2022/03/28 00:02:44;;;;;;;16.83;11.07;;;;;;;5.55;100.00;99691.59;5018285;28;20029;-61
2022/03/28 00:05:13;;;;;;;43.60;39.63;;;;;;;5.49;100.00;99688.09;5015023;28;20088;-59
2022/03/28 00:07:38;;;;;;;19.07;12.77;;;;;;;5.40;100.00;99671.81;5014771;28;20037;-60
2022/03/28 00:10:04;;;;;;;214.83;178.83;;;;;;;5.57;100.00;99687.38;5016811;28;20518;-60
2022/03/28 00:12:31;;;;;;;208.43;186.70;;;;;;;5.66;100.00;99680.78;5015515;28;20033;-60
2022/03/28 00:14:56;;;;;;;127.70;117.03;;;;;;;5.70;100.00;99676.59;5011524;28;20442;-60
2022/03/28 00:17:21;;;;;;;68.97;63.93;;;;;;;5.57;100.00;99667.88;5012620;28;20033;-60
2022/03/28 00:19:47;;;;;;;75.47;70.00;;;;;;;5.73;100.00;99679.22;5014005;28;20476;-60
2022/03/28 00:22:12;;;;;;;150.27;137.40;;;;;;;5.62;100.00;99657.78;5013552;28;20028;-60
2022/03/28 00:24:38;;;;;;;43.80;38.47;;;;;;;5.74;100.00;99678.34;5010572;28;20092;-60
2022/03/28 00:27:03;;;;;;;66.63;61.83;;;;;;;5.62;100.00;99663.75;5012421;28;20038;-60
2022/03/28 00:29:29;;;;;;;150.80;137.03;;;;;;;5.56;100.00;99672.97;5016806;28;20044;-60
2022/03/28 00:31:54;;;;;;;135.20;122.83;;;;;;;5.43;100.00;99674.44;5014383;28;20029;-59
2022/03/28 00:34:21;;;;;;;28.20;22.93;;;;;;;5.36;100.00;99672.59;5010924;28;20060;-60
2022/03/28 00:36:50;;;;;;;39.60;35.90;;;;;;;5.41;100.00;99671.00;5013346;28;20034;-59
2022/03/28 00:39:19;;;;;;;186.87;168.17;;;;;;;5.54;100.00;99665.31;5014078;28;20038;-59
2022/03/28 00:41:45;;;;;;;118.00;107.77;;;;;;;5.58;100.00;99648.41;5013405;28;20377;-60
2022/03/28 00:44:11;;;;;;;60.17;53.80;;;;;;;5.56;100.00;99648.38;5010008;28;20468;-59
2022/03/28 00:46:37;;;;;;;257.80;194.97;;;;;;;5.55;100.00;99651.75;5013553;28;20494;-59
2022/03/28 00:49:03;;;;;;;206.40;167.90;;;;;;;5.42;100.00;99637.97;5015123;28;20053;-59
2022/03/28 00:51:28;;;;;;;165.40;150.00;;;;;;;5.41;100.00;99643.88;5011263;28;20030;-60
2022/03/28 00:53:54;;;;;;;252.27;199.83;;;;;;;5.22;100.00;99630.81;5012011;28;20049;-60
2022/03/28 00:56:20;;;;;;;96.97;88.20;;;;;;;5.25;100.00;99628.34;5012723;28;20036;-60
2022/03/28 00:58:46;;;;;;;92.73;85.40;;;;;;;5.43;100.00;99642.22;5014866;28;20385;-60
2022/03/28 01:01:11;;;;;;;344.63;192.43;;;;;;;5.44;100.00;99636.31;5011756;28;20388;-59
2022/03/28 01:03:38;;;;;;;426.73;202.83;;;;;;;5.42;100.00;99635.44;5010759;28;20041;-60
2022/03/28 01:06:05;;;;;;;407.20;205.10;;;;;;;5.26;100.00;99613.09;5014702;28;20121;-60
2022/03/28 01:08:32;;;;;;;324.67;180.37;;;;;;;5.33;100.00;99608.97;5015112;28;20427;-60
2022/03/28 01:11:01;;;;;;;22.00;15.53;;;;;;;5.30;100.00;99598.78;5010020;28;20053;-59
2022/03/28 01:13:27;;;;;;;116.73;78.33;;;;;;;5.32;100.00;99623.38;5011819;28;20562;-60
2022/03/28 01:15:53;;;;;;;171.50;153.50;;;;;;;5.23;100.00;99618.13;5014529;28;20033;-60
2022/03/28 01:18:18;;;;;;;324.60;193.87;;;;;;;5.11;100.00;99589.09;5013985;28;20468;-60
2022/03/28 01:20:44;;;;;;;238.83;183.60;;;;;;;5.15;100.00;99599.34;5009796;28;20109;-60
2022/03/28 01:23:10;;;;;;;308.90;173.53;;;;;;;5.12;100.00;99598.44;5019674;28;20638;-59
2022/03/28 01:25:36;;;;;;;118.83;102.57;;;;;;;5.34;100.00;99600.53;5022140;28;20227;-59
2022/03/28 01:28:02;;;;;;;121.60;110.60;;;;;;;5.50;100.00;99602.50;5013770;28;20048;-60
2022/03/28 01:30:30;;;;;;;161.60;145.57;;;;;;;5.45;100.00;99604.97;5009738;28;20052;-61
2022/03/28 01:32:58;;;;;;;197.90;177.30;;;;;;;5.58;100.00;99602.63;5014681;28;20385;-61
2022/03/28 01:35:38;;;;;;;118.60;108.87;;;;;;;5.45;100.00;99589.72;5015674;28;20034;-59
2022/03/28 01:38:07;;;;;;;;;;;;;;;5.48;100.00;99592.28;5012775;28;20048;-59
2022/03/28 01:40:34;;;;;;;;;;;;;;;5.43;100.00;99596.44;5012902;28;19933;-59
2022/03/28 01:42:59;;;;;;;;;;;;;;;5.46;100.00;99586.34;5015718;28;19917;-60
2022/03/28 01:45:24;;;;;;;;;;;;;;;5.46;100.00;99582.94;5015458;28;20331;-61
2022/03/28 01:47:50;;;;;;;;;;;;;;;5.34;100.00;99581.06;5014489;28;20456;-60
2022/03/28 01:50:16;;;;;;;;;;;;;;;5.37;100.00;99585.31;5009911;28;20363;-60
2022/03/28 01:52:41;;;;;;;;;;;;;;;5.41;100.00;99577.78;5014443;28;19972;-60
2022/03/28 01:55:07;;;;;;;;;;;;;;;5.35;100.00;99587.81;5015209;28;19971;-60
2022/03/28 01:57:33;;;;;;;;;;;;;;;5.23;100.00;99586.75;5013651;28;19921;-59
2022/03/28 01:59:58;;;;;;;;;;;;;;;5.11;100.00;99584.00;5012265;28;19924;-59
2022/03/28 02:02:23;;;;;;;;;;;;;;;5.00;100.00;99578.75;5015982;28;19921;-61
2022/03/28 02:04:48;;;;;;;;;;;;;;;4.98;100.00;99583.78;5015354;28;20023;-59
2022/03/28 02:07:14;;;;;;;;;;;;;;;4.96;100.00;99574.44;5010975;28;20333;-59
2022/03/28 02:09:39;;;;;;;;;;;;;;;4.96;100.00;99570.22;5009431;28;19936;-59
2022/03/28 02:12:04;;;;;;;;;;;;;;;4.90;100.00;99571.75;5015113;28;20272;-59
2022/03/28 02:14:30;;;;;;;;;;;;;;;4.91;100.00;99573.50;5016472;28;19917;-60
2022/03/28 02:16:55;;;;;;;;;;;;;;;4.83;100.00;99567.41;5010506;28;20449;-59
2022/03/28 02:19:20;;;;;;;;;;;;;;;4.74;100.00;99569.78;5011456;28;19968;-61
2022/03/28 02:21:45;;;;;;;;;;;;;;;4.68;100.00;99567.97;5014601;28;19924;-59
2022/03/28 02:24:11;;;;;;;;;;;;;;;4.63;100.00;99566.16;5013707;28;20563;-60
2022/03/28 02:26:36;;;;;;;;;;;;;;;4.57;100.00;99566.91;5009579;28;19917;-60
2022/03/28 02:29:01;;;;;;;;;;;;;;;4.54;100.00;99565.16;5011595;28;20345;-60
2022/03/28 02:31:26;;;;;;;;;;;;;;;4.53;100.00;99570.22;5013592;28;20004;-60
2022/03/28 02:33:52;;;;;;;;;;;;;;;4.45;100.00;99559.06;5011149;28;20023;-61
2022/03/28 02:36:17;;;;;;;;;;;;;;;4.38;100.00;99560.59;5008549;28;19925;-60
2022/03/28 02:38:42;;;;;;;;;;;;;;;4.34;100.00;99568.97;5012154;28;19929;-59
2022/03/28 02:41:07;;;;;;;;;;;;;;;4.29;100.00;99568.00;5012841;28;20020;-58
2022/03/28 02:43:33;;;;;;;;;;;;;;;4.24;100.00;99562.00;5012899;28;19921;-61
2022/03/28 02:45:58;;;;;;;;;;;;;;;4.23;100.00;99565.38;5009847;28;19924;-60
2022/03/28 02:48:23;;;;;;;;;;;;;;;4.16;100.00;99560.97;5013539;28;19948;-59
2022/03/28 02:50:49;;;;;;;;;;;;;;;4.13;100.00;99564.31;5013875;28;20375;-58
2022/03/28 02:53:14;;;;;;;;;;;;;;;4.10;100.00;99558.31;5012832;28;19924;-59
2022/03/28 02:55:40;;;;;;;;;;;;;;;4.05;100.00;99563.28;5011485;28;19924;-59
2022/03/28 02:58:05;;;;;;;;;;;;;;;3.99;100.00;99557.19;5011509;28;19924;-58
2022/03/28 03:00:31;;;;;;;262.07;165.70;;;;;;;3.87;100.00;99542.56;5012878;28;19917;-59
2022/03/28 03:02:57;;;;;;;386.97;183.90;;;;;;;3.93;100.00;99559.63;5010885;28;20084;-57
2022/03/28 03:05:23;;;;;;;362.60;175.17;;;;;;;3.87;100.00;99565.41;5009395;28;20076;-59
2022/03/28 03:07:49;;;;;;;269.73;164.27;;;;;;;3.73;100.00;99546.50;5012831;28;20152;-59
2022/03/28 03:10:15;;;;;;;278.20;169.37;;;;;;;3.71;100.00;99539.66;5013392;28;20054;-60
2022/03/28 03:12:40;;;;;;;275.83;169.60;;;;;;;3.74;100.00;99552.41;5009615;28;20546;-59
2022/03/28 03:15:06;;;;;;;306.50;177.27;;;;;;;3.69;100.00;99539.66;5009573;28;20484;-59
2022/03/28 03:17:32;;;;;;;395.00;182.37;;;;;;;3.81;100.00;99539.91;5012915;28;20728;-59
2022/03/28 03:19:57;;;;;;;249.17;149.67;;;;;;;3.86;100.00;99535.78;5013316;28;20035;-59
2022/03/28 03:22:22;;;;;;;351.87;168.60;;;;;;;4.00;100.00;99548.78;5013409;28;20025;-60
2022/03/28 03:24:48;;;;;;;339.40;159.37;;;;;;;4.03;100.00;99534.47;5013927;28;20037;-60
2022/03/28 03:27:13;;;;;;;387.27;164.90;;;;;;;4.14;100.00;99549.94;5017690;28;20044;-58
2022/03/28 03:29:40;;;;;;;349.03;166.33;;;;;;;4.34;100.00;99551.19;5016118;28;20168;-59
2022/03/28 03:32:06;;;;;;;253.47;148.00;;;;;;;4.16;100.00;99538.13;5010440;28;20038;-60
2022/03/28 03:34:32;;;;;;;386.83;160.63;;;;;;;4.29;100.00;99552.78;5012542;28;20483;-60
2022/03/28 03:36:57;;;;;;;439.73;168.83;;;;;;;4.22;100.00;99539.94;5015882;28;20069;-60
2022/03/28 03:39:23;;;;;;;264.37;154.17;;;;;;;4.10;100.00;99535.47;5015957;28;20137;-60
2022/03/28 03:41:49;;;;;;;327.50;175.90;;;;;;;3.96;100.00;99529.25;5012664;28;20088;-59
2022/03/28 03:44:14;;;;;;;282.20;168.00;;;;;;;4.11;100.00;99545.66;5013043;28;20497;-59
2022/03/28 03:46:40;;;;;;;345.57;168.93;;;;;;;4.22;100.00;99548.41;5015866;28;20030;-59
2022/03/28 03:49:05;;;;;;;118.30;105.80;;;;;;;4.27;100.00;99554.44;5015081;28;20463;-59
2022/03/28 03:51:31;;;;;;;242.60;162.00;;;;;;;4.31;100.00;99537.59;5013697;28;20037;-58
2022/03/28 03:53:56;;;;;;;188.30;150.50;;;;;;;4.36;100.00;99536.00;5013831;28;20038;-60
2022/03/28 03:56:22;;;;;;;105.90;95.53;;;;;;;4.32;100.00;99537.63;5015317;28;20030;-59
2022/03/28 03:58:47;;;;;;;296.47;166.43;;;;;;;4.36;100.00;99539.41;5014614;28;20083;-60
2022/03/28 04:01:13;;;;;;;289.43;160.87;;;;;;;4.38;100.00;99542.81;5013092;28;20037;-60
2022/03/28 04:03:38;;;;;;;323.53;163.77;;;;;;;4.49;100.00;99543.91;5014151;28;20038;-62
2022/03/28 04:06:05;;;;;;;303.10;171.97;;;;;;;4.54;100.00;99546.53;5016289;28;20831;-58
2022/03/28 04:08:30;;;;;;;393.47;182.10;;;;;;;4.62;100.00;99539.94;5013200;28;20056;-60
2022/03/28 04:10:56;;;;;;;305.53;173.97;;;;;;;4.72;100.00;99546.00;5012732;28;20512;-61
2022/03/28 04:13:22;;;;;;;258.80;176.00;;;;;;;4.73;100.00;99535.91;5020115;28;20260;-59
2022/03/28 04:15:48;;;;;;;298.93;158.80;;;;;;;4.64;100.00;99542.47;5015813;28;20092;-59
2022/03/28 04:18:14;;;;;;;399.90;184.30;;;;;;;4.59;100.00;99540.69;5013631;28;20044;-60
2022/03/28 04:20:39;;;;;;;446.13;179.53;;;;;;;4.50;100.00;99542.19;5011759;28;20054;-59
2022/03/28 04:23:05;;;;;;;440.37;170.37;;;;;;;4.41;100.00;99544.59;5016275;28;20030;-59
2022/03/28 04:25:31;;;;;;;298.80;167.27;;;;;;;4.26;100.00;99539.19;5015678;28;20033;-59
2022/03/28 04:27:56;;;;;;;417.23;182.37;;;;;;;4.03;100.00;99523.50;5011368;28;20113;-60
2022/03/28 04:30:23;;;;;;;346.50;175.40;;;;;;;4.02;100.00;99535.31;5012721;28;20034;-61
2022/03/28 04:32:49;;;;;;;411.93;182.17;;;;;;;3.96;100.00;99547.84;5014542;28;20053;-61
2022/03/28 04:35:14;;;;;;;326.30;164.87;;;;;;;3.95;100.00;99542.72;5015720;28;20037;-60
2022/03/28 04:37:41;;;;;;;410.83;191.47;;;;;;;3.91;100.00;99535.88;5009056;28;20041;-60
2022/03/28 04:40:09;;;;;;;301.13;160.53;;;;;;;3.93;100.00;99539.31;5012651;28;20038;-59
2022/03/28 04:42:35;;;;;;;383.33;177.67;;;;;;;4.02;100.00;99531.91;5015677;28;20034;-59
2022/03/28 04:45:02;;;;;;;424.40;189.37;;;;;;;4.04;100.00;99532.78;5014689;28;20030;-62
2022/03/28 04:47:29;;;;;;;400.53;187.50;;;;;;;4.06;100.00;99531.16;5012703;28;20115;-59
2022/03/28 04:49:55;;;;;;;169.50;122.03;;;;;;;3.99;100.00;99511.53;5011867;28;20029;-58
2022/03/28 04:52:20;;;;;;;312.17;165.70;;;;;;;4.10;100.00;99515.19;5016092;28;20026;-59
2022/03/28 04:54:46;;;;;;;248.70;156.93;;;;;;;4.19;100.00;99530.59;5014130;28;20475;-61
2022/03/28 04:57:11;;;;;;;380.03;187.17;;;;;;;4.25;100.00;99527.31;5012792;28;20033;-63
2022/03/28 04:59:36;;;;;;;435.73;172.63;;;;;;;4.26;100.00;99523.94;5012276;28;20029;-59
2022/03/28 05:02:02;;;;;;;316.17;173.63;;;;;;;4.21;100.00;99525.53;5014789;28;20060;-64
2022/03/28 05:04:28;;;;;;;295.63;173.57;;;;;;;4.11;100.00;99506.75;5012091;28;20069;-60
2022/03/28 05:06:53;;;;;;;328.83;164.70;;;;;;;4.17;100.00;99523.75;5010981;28;20052;-58
2022/03/28 05:09:18;;;;;;;299.97;171.60;;;;;;;4.03;100.00;99511.63;5012722;28;20394;-60
2022/03/28 05:11:44;;;;;;;285.80;162.57;;;;;;;3.99;100.00;99514.06;5014316;28;20543;-59
2022/03/28 05:14:10;;;;;;;266.40;168.90;;;;;;;4.08;100.00;99530.34;5012508;28;20033;-58
2022/03/28 05:16:36;;;;;;;331.07;191.60;;;;;;;4.08;100.00;99520.22;5011321;28;20531;-59
2022/03/28 05:19:02;;;;;;;273.43;175.27;;;;;;;4.12;100.00;99524.53;5013929;28;20038;-60
2022/03/28 05:21:27;;;;;;;210.40;148.77;;;;;;;4.20;100.00;99523.84;5014382;28;20033;-60
2022/03/28 05:23:53;;;;;;;327.17;184.20;;;;;;;4.20;100.00;99516.22;5012101;28;20487;-59
2022/03/28 05:26:18;;;;;;;143.27;114.50;;;;;;;4.19;100.00;99505.22;5011298;28;20500;-60
2022/03/28 05:28:44;;;;;;;228.50;157.03;;;;;;;4.31;100.00;99515.63;5013197;28;20391;-59
2022/03/28 05:31:09;;;;;;;149.07;123.87;;;;;;;4.49;100.00;99527.81;5014272;28;20044;-58
2022/03/28 05:33:35;;;;;;;137.33;114.27;;;;;;;4.54;100.00;99523.69;5012240;28;20018;-59
2022/03/28 05:36:00;;;;;;;219.23;163.80;;;;;;;4.65;100.00;99529.81;5012544;28;20037;-59
2022/03/28 05:38:27;;;;;;;205.83;164.27;;;;;;;4.74;100.00;99531.66;5015202;28;20392;-59
2022/03/28 05:40:53;;;;;;;98.47;89.53;;;;;;;4.76;100.00;99517.31;5013112;28;20041;-58
2022/03/28 05:43:19;;;;;;;180.17;160.60;;;;;;;4.88;100.00;99515.00;5010098;28;20435;-60
2022/03/28 05:45:44;;;;;;;96.47;88.70;;;;;;;5.12;100.00;99525.59;5009727;28;20096;-61
2022/03/28 05:48:10;;;;;;;233.07;177.80;;;;;;;5.21;100.00;99524.88;5013474;28;20459;-60
2022/03/28 05:50:35;;;;;;;277.73;193.77;;;;;;;5.27;100.00;99523.28;5013675;28;20079;-60
2022/03/28 05:53:01;;;;;;;394.13;204.23;;;;;;;5.34;100.00;99517.50;5011276;28;20046;-60
2022/03/28 05:55:27;;;;;;;377.53;204.53;;;;;;;5.52;100.00;99530.47;5010100;28;20538;-60
2022/03/28 05:57:53;;;;;;;312.17;208.03;;;;;;;5.58;100.00;99526.31;5012846;28;20424;-60
2022/03/28 06:00:20;;;;;;;197.80;174.77;;;;;;;5.71;100.00;99531.63;5013532;28;20092;-61
2022/03/28 06:02:46;;;;;;;371.23;220.17;;;;;;;5.74;100.00;99521.47;5011048;28;20033;-59
2022/03/28 06:05:12;;;;;;;302.23;194.23;;;;;;;5.94;100.00;99527.72;5011370;28;20040;-58
2022/03/28 06:07:37;;;;;;;122.27;111.07;;;;;;;6.07;100.00;99531.28;5013880;28;20044;-59
2022/03/28 06:10:04;;;;;;;290.57;190.80;;;;;;;6.04;100.00;99494.78;5012612;28;20137;-59
2022/03/28 06:12:29;;;;;;;439.20;218.60;;;;;;;6.30;100.00;99524.81;5011248;28;20487;-60
2022/03/28 06:14:54;;;;;;;443.87;227.83;;;;;;;6.48;100.00;99534.38;5011960;28;20045;-63
2022/03/28 06:17:24;;;;;;;359.03;232.30;;;;;;;6.62;100.00;99521.81;5014742;28;20036;-60
2022/03/28 06:19:50;;;;;;;400.47;244.10;;;;;;;6.83;100.00;99535.59;5013692;28;20036;-60
2022/03/28 06:22:16;;;;;;;444.13;256.47;;;;;;;6.93;100.00;99513.63;5010677;28;20030;-60
2022/03/28 06:24:41;;;;;;;302.33;247.27;;;;;;;7.13;100.00;99529.94;5012577;28;20032;-59
2022/03/28 06:27:07;;;;;;;458.77;233.37;;;;;;;7.29;100.00;99530.97;5013658;28;20033;-61
2022/03/28 06:29:33;;;;;;;273.43;188.33;;;;;;;7.20;100.00;99513.88;5011397;28;20504;-60
2022/03/28 06:31:58;;;;;;;276.87;235.40;;;;;;;7.46;100.00;99520.91;5009607;28;20033;-60
2022/03/28 06:34:24;;;;;;;457.70;258.13;;;;;;;7.61;100.00;99518.44;5012019;28;20044;-59
2022/03/28 06:36:49;;;;;;;180.60;162.40;;;;;;;7.70;100.00;99506.59;5012083;28;20046;-59
2022/03/28 06:39:15;;;;;;;302.67;244.77;;;;;;;7.73;100.00;99500.66;5011540;28;20041;-59
2022/03/28 06:41:40;;;;;;;482.87;266.60;;;;;;;7.85;100.00;99508.38;5011047;28;20105;-60
2022/03/28 06:44:08;;;;;;;333.07;242.80;;;;;;;8.04;100.00;99506.78;5013163;28;20034;-59
2022/03/28 06:46:34;;;;;;;457.03;269.67;;;;;;;8.25;100.00;99507.75;5013649;28;20036;-60
2022/03/28 06:49:00;;;;;;;316.10;282.77;;;;;;;8.39;100.00;99510.41;5009996;28;20025;-61
2022/03/28 06:51:26;;;;;;;323.07;271.93;;;;;;;8.36;100.00;99487.38;5009465;28;20031;-59
2022/03/28 06:53:51;;;;;;;119.63;110.53;;;;;;;8.58;100.00;99513.84;5012565;28;20034;-59
2022/03/28 06:56:17;;;;;;;319.53;266.70;;;;;;;8.72;100.00;99499.44;5014969;28;20033;-59
2022/03/28 06:58:43;;;;;;;440.37;305.43;;;;;;;8.88;100.00;99496.03;5014040;28;20375;-60
2022/03/28 07:01:10;;;;;;;307.33;281.27;;;;;;;9.03;100.00;99500.34;5013228;28;20048;-60
2022/03/28 07:03:36;;;;;;;354.20;301.03;;;;;;;9.15;100.00;99493.53;5017816;28;20057;-60
2022/03/28 07:06:01;;;;;;;228.27;212.27;;;;;;;9.27;100.00;99494.38;5016550;28;20074;-60
2022/03/28 07:08:27;;;;;;;355.93;320.33;;;;;;;9.40;100.00;99506.31;5013367;28;20042;-58
2022/03/28 07:10:53;;;;;;;348.00;315.33;;;;;;;9.39;100.00;99472.19;5014695;28;20109;-59
2022/03/28 07:13:19;;;;;;;167.47;155.50;;;;;;;9.64;100.00;99483.25;5017322;28;20026;-60
2022/03/28 07:15:44;;;;;;;333.20;297.60;;;;;;;9.87;100.00;99496.88;5016553;28;20534;-59
2022/03/28 07:18:10;;;;;;;414.27;372.60;;;;;;;9.98;100.00;99494.25;5012987;28;20030;-60
2022/03/28 07:20:36;;;;;;;422.23;382.13;;;;;;;10.12;100.00;99495.09;5013563;28;20030;-59
2022/03/28 07:23:03;;;;;;;40.90;37.53;;;;;;;10.24;100.00;99496.78;5017126;28;20445;-59
2022/03/28 07:25:29;;;;;;;426.80;363.37;;;;;;;10.20;100.00;99485.69;5017498;28;20034;-59
2022/03/28 07:27:56;;;;;;;455.37;390.60;;;;;;;10.43;99.26;99506.97;5012952;28;20052;-59
2022/03/28 07:30:22;;;;;;;328.70;305.93;;;;;;;10.60;98.74;99503.47;5016415;28;20037;-59
2022/03/28 07:32:48;;;;;;;66.47;61.33;;;;;;;10.71;97.16;99497.41;5016616;28;20026;-59
2022/03/28 07:35:15;;;;;;;241.73;226.60;;;;;;;10.81;93.74;99491.38;5014743;28;20068;-60
2022/03/28 07:37:41;;;;;;;345.83;317.90;;;;;;;10.88;91.65;99475.06;5013293;28;20497;-59
2022/03/28 07:40:08;;;;;;;403.20;373.57;;;;;;;11.07;90.76;99487.78;5016136;28;20037;-59
2022/03/28 07:42:35;;;;;;;395.87;355.67;;;;;;;10.92;89.58;99471.63;5016107;28;20056;-60
2022/03/28 07:45:03;;;;;;;56.60;51.88;;;;;;;11.06;89.09;99470.69;5013008;28;20048;-60
2022/03/28 07:47:29;;;;;;;416.80;386.80;;;;;;;11.21;87.92;99480.81;5012905;28;20612;-60
2022/03/28 07:49:57;;;;;;;189.70;173.87;;;;;;;11.37;86.13;99474.72;5015887;28;20152;-61
2022/03/28 07:52:22;;;;;;;500.13;453.17;;;;;;;11.42;85.34;99473.78;5016724;28;20259;-60
2022/03/28 07:54:48;;;;;;;512.87;468.00;;;;;;;11.51;82.95;99477.13;5013048;28;20123;-59
2022/03/28 07:57:15;;;;;;;221.25;208.05;;;;;;;11.34;83.74;99467.00;5012197;28;20238;-59
2022/03/28 07:59:46;;;;;;;490.63;451.43;;;;;;;11.57;83.75;99477.09;5016314;28;20037;-60
2022/03/28 08:02:11;;;;;;;510.47;458.13;;;;;;;11.50;83.44;99448.03;5016814;28;20517;-61
2022/03/28 08:04:37;;;;;;;535.93;487.67;;;;;;;11.76;83.16;99465.78;5012825;28;20033;-59
2022/03/28 08:07:08;;;;;;;478.13;441.13;;;;;;;11.71;82.71;99455.53;5012609;28;20107;-60
2022/03/28 08:09:38;;;;;;;359.55;335.75;;;;;;;11.82;81.49;99460.59;5014399;28;20099;-60
2022/03/28 08:12:05;;;;;;;534.60;483.00;;;;;;;11.81;80.07;99464.88;5015206;28;20037;-60
2022/03/28 08:14:31;;;;;;;484.33;442.50;;;;;;;11.99;78.91;99445.00;5011761;28;20079;-60
2022/03/28 08:16:56;;;;;;;546.17;503.33;;;;;;;12.13;77.69;99453.41;5014135;28;20037;-60
2022/03/28 08:19:22;;;;;;;482.03;445.57;;;;;;;12.10;76.71;99448.28;5014812;28;20038;-62
2022/03/28 08:21:48;;;;;;;506.88;469.13;;;;;;;11.99;75.68;99435.56;5014917;28;20072;-60
2022/03/28 08:24:13;;;;;;;530.13;490.10;;;;;;;11.97;75.94;99441.56;5012040;28;20030;-60
2022/03/28 08:26:39;;;;;;;578.67;529.37;;;;;;;12.17;74.66;99444.78;5015667;28;20123;-60
2022/03/28 08:29:05;;;;;;;306.33;289.70;;;;;;;12.27;72.66;99434.34;5017650;28;20029;-60
2022/03/28 08:31:31;;;;;;;390.98;363.95;;;;;;;12.36;73.25;99438.50;5015797;28;20057;-59
2022/03/28 08:33:57;;;;;;;394.17;371.48;;;;;;;12.57;72.74;99432.22;5012570;28;20026;-59
2022/03/28 08:36:23;;;;;;;315.05;297.27;;;;;;;12.82;70.08;99431.00;5013395;28;20045;-59
2022/03/28 08:38:48;;;;;;;408.80;385.33;;;;;;;12.88;70.18;99427.47;5015644;28;20120;-59
2022/03/28 08:41:16;;;;;;;272.60;257.48;;;;;;;12.85;67.90;99412.94;5013073;28;20117;-59
2022/03/28 08:43:41;;;;;;;345.52;326.50;;;;;;;13.09;66.00;99424.56;5010994;28;20036;-60
2022/03/28 08:46:09;;;;;;;303.55;285.88;;;;;;;12.94;66.09;99414.53;5014441;28;20470;-60
2022/03/28 08:48:42;;;;;;;347.00;328.00;;;;;;;12.80;67.13;99418.16;5014351;28;20581;-61
2022/03/28 08:51:09;;;;;;;440.10;410.67;;;;;;;12.72;68.51;99416.59;5011426;28;20030;-60
2022/03/28 08:53:35;;;;;;;569.92;524.25;;;;;;;12.95;66.86;99406.75;5010895;28;20111;-62
2022/03/28 08:56:01;;;;;;;359.88;339.38;;;;;;;13.14;66.45;99409.94;5015236;28;20029;-59
2022/03/28 08:58:26;;;;;;;435.13;409.70;;;;;;;13.23;65.10;99396.91;5015134;28;20034;-60
2022/03/28 09:00:52;;;;;;;322.73;304.77;;;;;;;13.26;64.64;99395.13;5010256;28;20048;-60
2022/03/28 09:03:18;;;;;;;67.28;62.97;;;;;;;13.53;64.34;99401.50;5010780;28;20029;-59
2022/03/28 09:05:47;;;;;;;69.93;65.38;;;;;;;13.63;64.30;99403.03;5014524;28;20338;-59
2022/03/28 09:08:13;;;;;;;205.88;195.32;;;;;;;13.80;62.49;99396.69;5012939;28;20361;-63
2022/03/28 09:10:44;;;;;;;302.92;285.85;;;;;;;13.97;61.66;99400.63;5011842;28;20053;-60
2022/03/28 09:13:13;;;;;;;219.18;207.68;;;;;;;13.99;61.13;99375.69;5010602;28;20040;-60
2022/03/28 09:16:00;;;;;;;523.67;491.95;;;;;;;14.08;60.69;99390.97;5016415;28;20128;-61
2022/03/28 09:18:29;;;;;;;239.27;226.93;;;;;;;14.17;60.26;99377.84;5014573;28;20026;-60
2022/03/28 09:21:10;;;;;;;265.90;252.52;;;;;;;14.19;60.37;99378.69;5010283;28;20045;-61
2022/03/28 09:23:40;;;;;;;375.63;355.55;;;;;;;14.18;60.35;99382.13;5013820;28;20412;-61
2022/03/28 09:26:23;;;;;;;303.55;287.92;;;;;;;14.37;59.92;99367.16;5015156;28;20408;-60
2022/03/28 09:29:03;;;;;;;99.35;93.22;;;;;;;14.48;60.12;99375.47;5009522;28;20021;-59
2022/03/28 09:31:30;;;;;;;61.40;57.03;;;;;;;14.56;58.97;99367.56;5011360;28;20056;-59
2022/03/28 09:34:16;;;;;;;36.63;33.25;;;;;;;14.68;59.18;99359.56;5015151;28;20411;-60
2022/03/28 09:36:45;;;;;;;176.10;166.85;;;;;;;14.81;58.69;99358.34;5012251;28;20189;-59
2022/03/28 09:39:32;;;;;;;397.30;376.23;;;;;;;14.78;58.75;99352.41;5010919;28;20048;-60
2022/03/28 09:42:08;;;;;;;94.78;89.32;;;;;;;14.89;57.96;99343.53;5012268;28;20042;-60
2022/03/28 09:44:46;;;;;;;302.20;286.85;;;;;;;15.07;57.26;99353.38;5012957;28;20036;-60
2022/03/28 09:47:17;;;;;;;111.85;104.53;;;;;;;15.23;57.27;99333.19;5011240;28;20037;-62
2022/03/28 09:49:43;;;;;;;194.52;184.32;;;;;;;15.32;57.53;99340.66;5009976;28;20038;-61
2022/03/28 09:52:18;;;;;;;165.82;156.98;;;;;;;15.19;58.38;99344.47;5013798;28;20482;-61
2022/03/28 09:54:45;;;;;;;329.15;312.42;;;;;;;15.29;57.05;99338.19;5013609;28;20562;-59
2022/03/28 09:57:12;;;;;;;387.20;366.73;;;;;;;15.47;56.35;99329.09;5010982;28;20483;-60
2022/03/28 09:59:39;;;;;;;110.28;104.25;;;;;;;15.54;56.48;99326.31;5010100;28;20097;-60
2022/03/28 10:02:20;;;;;;;206.32;196.32;;;;;;;15.56;56.86;99315.09;5013480;28;20029;-60
2022/03/28 10:04:49;;;;;;;84.85;79.13;;;;;;;15.63;56.71;99308.84;5013538;28;20029;-60
2022/03/28 10:07:15;;;;;;;46.17;42.67;;;;;;;15.78;56.50;99314.44;5010066;28;20030;-60
2022/03/28 10:09:40;;;;;;;25.98;23.52;;;;;;;15.79;55.94;99295.44;5010579;28;20044;-60
2022/03/28 10:12:06;;;;;;;84.68;79.63;;;;;;;16.00;55.62;99306.88;5012433;28;20033;-60
2022/03/28 10:14:32;;;;;;;48.42;44.08;;;;;;;16.00;54.73;99309.47;5013824;28;20514;-65
2022/03/28 10:17:02;;;;;;;33.72;30.67;;;;;;;16.08;55.63;99292.00;5009042;28;20045;-60
2022/03/28 10:19:34;;;;;;;40.85;37.80;;;;;;;16.24;55.15;99292.38;5011551;28;20087;-60
2022/03/28 10:22:03;;;;;;;18.15;14.23;;;;;;;16.30;55.32;99286.97;5014483;28;20029;-59
2022/03/28 10:24:33;;;;;;;83.55;78.53;;;;;;;16.45;54.78;99287.34;5010937;28;20033;-60
2022/03/28 10:27:00;;;;;;;211.65;201.00;;;;;;;16.64;53.91;99292.78;5010464;28;20554;-60
2022/03/28 10:29:41;;;;;;;54.45;50.67;;;;;;;16.56;53.91;99283.56;5012495;28;20445;-60
2022/03/28 10:32:08;;;;;;;45.53;42.13;;;;;;;16.50;53.01;99266.50;5013941;28;20053;-61
2022/03/28 10:34:42;;;;;;;23.65;16.50;;;;;;;16.63;52.57;99274.75;5010550;28;20121;-61
2022/03/28 10:37:29;;;;;;;669.30;627.92;;;;;;;16.82;52.56;99255.09;5009906;28;20065;-61
2022/03/28 10:40:22;;;;;;;522.75;493.67;;;;;;;16.63;52.59;99269.56;5012452;28;20344;-60
2022/03/28 10:42:49;;;;;;;567.22;534.40;;;;;;;16.70;53.18;99263.28;5010938;28;20421;-60
2022/03/28 10:45:21;;;;;;;485.85;459.95;;;;;;;16.87;52.13;99248.00;5007906;28;20060;-60
2022/03/28 10:47:52;;;;;;;163.55;154.80;;;;;;;17.07;51.90;99245.56;5010675;28;20495;-60
2022/03/28 10:50:30;;;;;;;384.02;364.65;;;;;;;17.19;51.60;99232.16;5012515;28;20098;-59
2022/03/28 10:53:04;;;;;;;682.22;642.72;;;;;;;17.34;50.99;99236.81;5009865;28;20053;-60
2022/03/28 10:55:57;;;;;;;582.90;550.08;;;;;;;17.26;50.42;99232.81;5009619;28;20041;-60
2022/03/28 10:58:41;;;;;;;727.08;684.33;;;;;;;17.06;50.12;99232.69;5012829;28;20057;-61
2022/03/28 11:01:13;;;;;;;710.37;668.40;;;;;;;17.19;49.85;99219.22;5013159;28;20030;-60
2022/03/28 11:03:50;;;;;;;472.88;446.90;;;;;;;17.38;50.03;99216.81;5009176;28;20321;-60
2022/03/28 11:06:41;;;;;;;561.78;530.90;;;;;;;17.26;49.40;99206.88;5011162;28;20029;-60
2022/03/28 11:09:06;;;;;;;445.90;419.90;;;;;;;17.39;48.82;99189.97;5013167;28;20545;-60
2022/03/28 11:11:33;;;;;;;683.45;643.72;;;;;;;17.64;48.18;99192.50;5009700;28;20050;-59
2022/03/28 11:14:11;;;;;;;727.42;683.88;;;;;;;17.52;48.17;99180.00;5009842;28;20836;-60